Kennydale, Washington
Current Conditions -  °F | °C
As of 2:53 AM on Wednesday 22 Oct 2014 (Local Time) from KRNT Reporting Station
Light Rain Light Rain  
Wind Chill: 56°   Ceiling: 5500
Heat Index: 56°   Visibility: 8mi
Dew Point: 50°   Wind: 3mph
Humidity: 80%   Direction: 100°E
Pressure: 29.68"   Gusts: NA
Location:  47.5152°N, 122.184°W
Report Text: KRNT 220953Z AUTO 10003KT 8SM -RA OVC055 13/10 A2968 RMK AO2 RAE22B38 SLP054 P0000 T01330100
Loading
Personal Weather Stations






























Interactive Weather Map New forecast layout! Learn more

10-Day Weather Forecast

Advertisements
Track Severe Weather on mobile